Allenwood, New Jersey
Current Conditions -  °F | °C
As of 4:35 PM on Thursday 27 Nov 2014 (Local Time) from KBLM Reporting Station
Broken Clouds Broken Clouds  
Wind Chill: 28°   Ceiling: 3000
Heat Index: 36°   Visibility: 10mi
Dew Point: 27°   Wind: 10mph
Humidity: 70%   Direction: 300°WNW
Pressure: 30.01"   Gusts: NA
Location:  40.14°N, 74.1°W
Report Text: KBLM 272135Z AUTO 30009KT 10SM BKN030 02/M03 A3001 RMK AO1
Loading
Personal Weather Stations






























Interactive Weather Map New forecast layout! Learn more

10-Day Weather Forecast

Advertisements
Track Severe Weather on mobile